createdAt,value
2019-02-24T00:01:15.540Z,2.20
2019-02-24T00:03:46.267Z,2.30
2019-02-24T00:06:15.702Z,2.43
2019-02-24T00:08:43.236Z,1.97
2019-02-24T00:11:11.721Z,2.10
2019-02-24T00:13:39.113Z,2.63
2019-02-24T00:16:06.612Z,1.63
2019-02-24T00:18:34.308Z,1.90
2019-02-24T00:21:02.744Z,2.10
2019-02-24T00:23:30.070Z,1.80
2019-02-24T00:25:59.065Z,2.20
2019-02-24T00:28:26.481Z,2.80
2019-02-24T00:30:53.767Z,1.97
2019-02-24T00:33:21.174Z,2.27
2019-02-24T00:35:50.232Z,1.67
2019-02-24T00:38:17.675Z,2.10
2019-02-24T00:40:44.925Z,2.07
2019-02-24T00:43:12.332Z,2.40
2019-02-24T00:45:40.522Z,2.20
2019-02-24T00:48:09.695Z,2.17
2019-02-24T00:50:37.295Z,1.93
2019-02-24T00:53:05.028Z,2.10
2019-02-24T00:55:32.584Z,1.33
2019-02-24T00:58:00.083Z,1.67
2019-02-24T01:00:27.727Z,1.90
2019-02-24T01:02:58.441Z,2.20
2019-02-24T01:05:28.750Z,1.63
2019-02-24T01:07:57.393Z,1.80
2019-02-24T01:10:25.643Z,1.83
2019-02-24T01:12:53.199Z,1.30
2019-02-24T01:15:20.560Z,1.60
2019-02-24T01:17:48.842Z,2.37
2019-02-24T01:20:17.893Z,1.50
2019-02-24T01:22:47.616Z,1.70
2019-02-24T01:25:15.014Z,1.50
2019-02-24T01:27:45.092Z,1.93
2019-02-24T01:30:12.445Z,1.70
2019-02-24T01:32:41.991Z,2.00
2019-02-24T01:35:10.585Z,2.10
2019-02-24T01:37:38.354Z,2.27
2019-02-24T01:40:06.461Z,2.20
2019-02-24T01:42:33.947Z,2.27
2019-02-24T01:45:01.728Z,1.80
2019-02-24T01:47:31.175Z,2.03
2019-02-24T01:49:58.422Z,1.30
2019-02-24T01:52:28.847Z,2.00
2019-02-24T01:54:56.442Z,1.57
2019-02-24T01:57:23.697Z,2.20
2019-02-24T01:59:51.608Z,2.17
2019-02-24T02:02:19.355Z,1.60
2019-02-24T02:04:47.012Z,1.90
2019-02-24T02:07:15.832Z,2.10
2019-02-24T02:09:43.250Z,1.70
2019-02-24T02:12:12.790Z,1.70
2019-02-24T02:14:39.977Z,1.90
2019-02-24T02:17:07.375Z,2.13
2019-02-24T02:19:34.779Z,1.83
2019-02-24T02:22:03.443Z,1.90
2019-02-24T02:24:31.580Z,1.57
2019-02-24T02:27:01.109Z,1.60
2019-02-24T02:29:30.587Z,1.57
2019-02-24T02:31:58.593Z,1.57
2019-02-24T02:34:25.850Z,1.20
2019-02-24T02:36:53.309Z,1.80
2019-02-24T02:39:24.076Z,1.90
2019-02-24T02:41:51.573Z,2.10
2019-02-24T02:44:19.133Z,1.10
2019-02-24T02:46:46.521Z,1.63
2019-02-24T02:49:13.954Z,4.50
2019-02-24T02:51:41.362Z,3.10
2019-02-24T02:54:08.715Z,2.03
2019-02-24T02:56:36.179Z,1.93
2019-02-24T02:59:03.562Z,1.83
2019-02-24T03:01:30.992Z,1.80
2019-02-24T03:03:58.297Z,1.90
2019-02-24T03:06:34.719Z,1.80
2019-02-24T03:09:02.185Z,1.53
2019-02-24T03:11:31.839Z,1.53
2019-02-24T03:14:01.015Z,1.90
2019-02-24T03:16:28.497Z,2.37
2019-02-24T03:18:56.180Z,2.30
2019-02-24T03:21:23.944Z,1.73
2019-02-24T03:23:52.319Z,2.40
2019-02-24T03:26:20.734Z,2.57
2019-02-24T03:28:49.087Z,2.07
2019-02-24T03:31:16.693Z,2.17
2019-02-24T03:33:45.108Z,1.83
2019-02-24T03:36:13.968Z,2.00
2019-02-24T03:38:41.257Z,2.33
2019-02-24T03:41:08.789Z,2.10
2019-02-24T03:43:40.743Z,1.67
2019-02-24T03:46:10.283Z,2.07
2019-02-24T03:48:37.854Z,2.40
2019-02-24T03:51:05.154Z,2.00
2019-02-24T03:53:32.416Z,2.10
2019-02-24T03:55:59.671Z,2.40
2019-02-24T03:58:29.374Z,2.27
2019-02-24T04:00:56.750Z,1.80
2019-02-24T04:03:24.370Z,2.00
2019-02-24T04:05:54.301Z,1.87
2019-02-24T04:08:21.713Z,2.10
2019-02-24T04:10:51.082Z,1.90
2019-02-24T04:13:19.560Z,1.90
2019-02-24T04:15:47.055Z,2.43
2019-02-24T04:18:14.671Z,2.13
2019-02-24T04:20:42.214Z,2.20
2019-02-24T04:23:09.738Z,2.90
2019-02-24T04:25:37.011Z,2.57
2019-02-24T04:28:06.576Z,2.40
2019-02-24T04:30:34.412Z,2.53
2019-02-24T04:33:01.886Z,2.40
2019-02-24T04:35:29.454Z,2.40
2019-02-24T04:37:57.425Z,2.60
2019-02-24T04:40:25.083Z,3.43
2019-02-24T04:42:52.427Z,2.90
2019-02-24T04:45:19.876Z,2.50
2019-02-24T04:47:47.205Z,2.43
2019-02-24T04:50:14.514Z,2.80
2019-02-24T04:52:42.012Z,2.37
2019-02-24T04:55:09.380Z,2.00
2019-02-24T04:57:37.432Z,3.90
2019-02-24T05:00:05.440Z,3.27
2019-02-24T05:02:32.896Z,2.37
2019-02-24T05:05:03.986Z,2.60
2019-02-24T05:07:32.225Z,2.53
2019-02-24T05:09:59.698Z,2.77
2019-02-24T05:12:27.215Z,2.90
2019-02-24T05:14:54.670Z,2.30
2019-02-24T05:17:22.488Z,2.07
2019-02-24T05:19:51.164Z,1.90
2019-02-24T05:22:18.473Z,2.17
2019-02-24T05:24:46.577Z,1.40
2019-02-24T05:27:14.000Z,1.83
2019-02-24T05:29:45.813Z,1.70
2019-02-24T05:32:10.998Z,0.97
2019-02-24T05:34:38.533Z,1.67
2019-02-24T05:37:08.608Z,1.30
2019-02-24T05:39:35.964Z,1.37
2019-02-24T05:42:03.525Z,1.30
2019-02-24T05:44:30.805Z,1.87
2019-02-24T05:46:57.988Z,1.30
2019-02-24T05:49:26.419Z,1.70
2019-02-24T05:51:56.519Z,1.50
2019-02-24T05:54:23.923Z,1.40
2019-02-24T05:56:51.514Z,1.53
2019-02-24T05:59:20.695Z,1.37
2019-02-24T06:01:47.963Z,1.67
2019-02-24T06:04:15.271Z,1.40
2019-02-24T06:06:43.115Z,1.60
2019-02-24T06:09:10.950Z,1.90
2019-02-24T06:11:40.302Z,1.70
2019-02-24T06:14:07.693Z,1.90
2019-02-24T06:16:37.809Z,1.60
2019-02-24T06:19:05.278Z,2.07
2019-02-24T06:21:32.599Z,1.77
2019-02-24T06:23:59.937Z,2.00
2019-02-24T06:26:27.684Z,2.00
2019-02-24T06:28:55.406Z,2.33
2019-02-24T06:31:22.828Z,2.53
2019-02-24T06:33:50.087Z,2.30
2019-02-24T06:36:19.848Z,1.90
2019-02-24T06:38:47.380Z,2.27
2019-02-24T06:41:14.748Z,2.17
2019-02-24T06:43:42.193Z,2.33
2019-02-24T06:46:10.982Z,2.50
2019-02-24T06:48:38.525Z,2.67
2019-02-24T06:51:09.101Z,2.30
2019-02-24T06:53:37.521Z,2.17
2019-02-24T06:56:04.804Z,2.47
2019-02-24T06:58:32.366Z,2.67
2019-02-24T07:00:59.583Z,2.90
2019-02-24T07:03:27.095Z,3.27
2019-02-24T07:05:54.569Z,3.00
2019-02-24T07:08:22.407Z,3.00
2019-02-24T07:10:49.920Z,2.47
2019-02-24T07:13:17.099Z,2.23
2019-02-24T07:15:44.393Z,2.30
2019-02-24T07:18:11.771Z,2.70
2019-02-24T07:20:39.605Z,2.83
2019-02-24T07:23:11.122Z,2.80
2019-02-24T07:25:38.434Z,2.93
2019-02-24T07:28:05.826Z,3.00
2019-02-24T07:30:36.161Z,3.17
2019-02-24T07:33:03.570Z,2.83
2019-02-24T07:35:31.133Z,3.07
2019-02-24T07:37:59.393Z,2.77
2019-02-24T07:40:26.811Z,3.07
2019-02-24T07:42:54.242Z,2.63
2019-02-24T07:45:21.662Z,3.23
2019-02-24T07:47:49.514Z,3.27
2019-02-24T07:50:19.261Z,3.33
2019-02-24T07:52:48.112Z,3.20
2019-02-24T07:55:15.505Z,3.60
2019-02-24T07:57:42.909Z,2.83
2019-02-24T08:00:13.497Z,3.20
2019-02-24T08:02:40.914Z,3.10
2019-02-24T08:05:08.339Z,3.60
2019-02-24T08:07:35.733Z,3.13
2019-02-24T08:10:04.096Z,3.30
2019-02-24T08:12:32.016Z,3.00
2019-02-24T08:14:59.430Z,2.87
2019-02-24T08:17:27.855Z,2.80
2019-02-24T08:19:55.456Z,3.60
2019-02-24T08:22:22.856Z,3.43
2019-02-24T08:24:50.311Z,2.80
2019-02-24T08:27:21.260Z,3.37
2019-02-24T08:29:48.847Z,3.17
2019-02-24T08:32:16.223Z,2.60
2019-02-24T08:34:44.867Z,3.07
2019-02-24T08:37:12.357Z,3.10
2019-02-24T08:39:40.046Z,2.80
2019-02-24T08:42:09.235Z,3.17
2019-02-24T08:44:37.831Z,2.53
2019-02-24T08:47:05.539Z,2.90
2019-02-24T08:49:33.212Z,2.63
2019-02-24T08:52:02.452Z,2.97
2019-02-24T08:54:31.225Z,2.20
2019-02-24T08:57:01.085Z,2.50
2019-02-24T08:59:28.442Z,2.90
2019-02-24T09:01:57.669Z,2.57
2019-02-24T09:04:27.423Z,2.30
2019-02-24T09:06:54.809Z,2.40
2019-02-24T09:09:22.215Z,2.67
2019-02-24T09:11:49.663Z,2.67
2019-02-24T09:14:17.324Z,2.53
2019-02-24T09:16:44.583Z,2.80
2019-02-24T09:19:12.126Z,2.73
2019-02-24T09:21:39.886Z,2.50
2019-02-24T09:24:07.141Z,2.03
2019-02-24T09:26:34.660Z,2.57
2019-02-24T09:29:04.303Z,2.53
2019-02-24T09:31:31.800Z,3.30
2019-02-24T09:33:59.280Z,2.77
2019-02-24T09:36:26.985Z,2.30
2019-02-24T09:38:56.742Z,2.47
2019-02-24T09:41:24.073Z,2.47
2019-02-24T09:43:52.716Z,2.63
2019-02-24T09:46:21.189Z,3.23
2019-02-24T09:48:48.435Z,2.53
2019-02-24T09:51:15.859Z,2.43
2019-02-24T09:53:42.937Z,2.77
2019-02-24T09:56:10.433Z,2.93
2019-02-24T09:58:37.868Z,2.63
2019-02-24T10:01:10.646Z,3.10
2019-02-24T10:03:35.168Z,2.00
2019-02-24T10:06:04.475Z,2.40
2019-02-24T10:08:31.831Z,2.23
2019-02-24T10:10:59.099Z,2.30
2019-02-24T10:13:26.388Z,2.43
2019-02-24T10:15:53.850Z,1.87
2019-02-24T10:18:21.300Z,2.10
2019-02-24T10:20:48.515Z,2.13
2019-02-24T10:23:15.910Z,1.90
2019-02-24T10:25:45.376Z,1.73
2019-02-24T10:28:12.788Z,1.87
2019-02-24T10:30:40.205Z,2.03
2019-02-24T10:33:07.886Z,2.10
2019-02-24T10:35:35.261Z,3.27
2019-02-24T10:38:02.594Z,2.87
2019-02-24T10:40:31.544Z,2.10
2019-02-24T10:42:58.941Z,2.47
2019-02-24T10:45:26.191Z,2.60
2019-02-24T10:47:54.220Z,2.00
2019-02-24T10:50:21.683Z,2.40
2019-02-24T10:52:48.803Z,2.57
2019-02-24T10:55:16.382Z,1.87
2019-02-24T10:57:43.626Z,2.57
2019-02-24T11:00:12.372Z,2.10
2019-02-24T11:02:39.864Z,2.00
2019-02-24T11:05:08.123Z,2.40
2019-02-24T11:07:35.675Z,2.10
2019-02-24T11:10:04.026Z,1.63
2019-02-24T11:12:31.989Z,2.10
2019-02-24T11:14:59.295Z,2.03
2019-02-24T11:17:26.638Z,2.33
2019-02-24T11:19:54.082Z,1.90
2019-02-24T11:22:21.512Z,2.93
2019-02-24T11:24:50.054Z,1.87
2019-02-24T11:27:17.412Z,1.67
2019-02-24T11:29:46.073Z,2.40
2019-02-24T11:32:13.463Z,2.23
2019-02-24T11:34:40.885Z,2.00
2019-02-24T11:37:08.241Z,1.67
2019-02-24T11:39:35.882Z,2.10
2019-02-24T11:42:03.384Z,2.27
2019-02-24T11:44:30.527Z,1.87
2019-02-24T11:46:59.795Z,2.00
2019-02-24T11:49:29.516Z,1.97
2019-02-24T11:52:03.678Z,1.77
2019-02-24T11:54:26.970Z,1.73
2019-02-24T11:56:54.374Z,1.60
2019-02-24T11:59:21.579Z,1.87
2019-02-24T12:01:49.159Z,1.77
2019-02-24T12:04:16.448Z,2.00
2019-02-24T12:06:43.675Z,1.70
2019-02-24T12:09:10.846Z,2.10
2019-02-24T12:11:38.405Z,1.80
2019-02-24T12:14:05.671Z,1.97
2019-02-24T12:16:33.117Z,1.80
2019-02-24T12:19:00.496Z,2.23
2019-02-24T12:21:27.894Z,1.60
2019-02-24T12:23:56.224Z,1.30
2019-02-24T12:26:23.554Z,1.80
2019-02-24T12:28:50.889Z,1.80
2019-02-24T12:31:18.322Z,1.70
2019-02-24T12:33:45.728Z,2.40
2019-02-24T12:36:12.986Z,2.10
2019-02-24T12:38:40.549Z,2.63
2019-02-24T12:41:08.159Z,2.20
2019-02-24T12:43:35.738Z,2.53
2019-02-24T12:46:03.237Z,2.10
2019-02-24T12:48:30.954Z,2.17
2019-02-24T12:50:58.352Z,2.10
2019-02-24T12:53:27.585Z,1.80
2019-02-24T12:55:55.166Z,1.50
2019-02-24T12:58:22.881Z,1.60
2019-02-24T13:00:50.116Z,1.70
2019-02-24T13:03:23.761Z,1.70
2019-02-24T13:05:48.816Z,1.57
2019-02-24T13:08:17.582Z,1.50
2019-02-24T13:10:45.120Z,2.00
2019-02-24T13:13:12.584Z,1.93
2019-02-24T13:15:41.763Z,2.67
2019-02-24T13:18:08.988Z,1.83
2019-02-24T13:20:36.952Z,5.40
2019-02-24T13:23:04.186Z,2.27
2019-02-24T13:25:31.680Z,1.90
2019-02-24T13:27:58.809Z,14.93
2019-02-24T13:30:26.206Z,2.03
2019-02-24T13:32:53.560Z,2.67
2019-02-24T13:35:20.956Z,2.40
2019-02-24T13:37:48.621Z,2.70
2019-02-24T13:40:16.103Z,2.53
2019-02-24T13:42:43.490Z,2.07
2019-02-24T13:45:12.153Z,2.17
2019-02-24T13:47:39.413Z,1.87
2019-02-24T13:50:07.032Z,2.20
2019-02-24T13:52:34.292Z,1.80
2019-02-24T13:55:01.764Z,1.87
2019-02-24T13:57:28.915Z,1.77
2019-02-24T13:59:56.342Z,2.13
2019-02-24T14:02:24.414Z,2.00
2019-02-24T14:04:51.974Z,1.83
2019-02-24T14:07:19.230Z,2.07
2019-02-24T14:09:48.290Z,1.90
2019-02-24T14:12:15.641Z,1.50
2019-02-24T14:14:48.837Z,1.63
2019-02-24T14:17:12.035Z,1.53
2019-02-24T14:19:39.351Z,1.67
2019-02-24T14:22:06.970Z,2.27
2019-02-24T14:24:34.389Z,1.67
2019-02-24T14:27:02.762Z,1.60
2019-02-24T14:29:30.324Z,1.90
2019-02-24T14:31:58.838Z,1.67
2019-02-24T14:34:26.263Z,1.60
2019-02-24T14:36:53.854Z,2.00
2019-02-24T14:39:22.278Z,1.77
2019-02-24T14:41:50.165Z,1.93
2019-02-24T14:44:19.524Z,2.00
2019-02-24T14:46:48.567Z,1.97
2019-02-24T14:49:19.559Z,1.87
2019-02-24T14:51:47.273Z,1.97
2019-02-24T14:54:14.629Z,1.60
2019-02-24T14:56:41.896Z,1.70
2019-02-24T14:59:10.669Z,1.73
2019-02-24T15:01:39.885Z,2.00
2019-02-24T15:04:08.143Z,2.20
2019-02-24T15:06:35.560Z,1.90
2019-02-24T15:09:04.992Z,1.90
2019-02-24T15:11:34.875Z,1.87
2019-02-24T15:14:02.251Z,1.73
2019-02-24T15:16:29.732Z,2.03
2019-02-24T15:18:57.270Z,1.73
2019-02-24T15:21:26.501Z,1.83
2019-02-24T15:23:57.441Z,1.90
2019-02-24T15:26:26.996Z,1.90
2019-02-24T15:28:56.617Z,2.17
2019-02-24T15:31:24.398Z,2.37
2019-02-24T15:33:52.515Z,2.27
2019-02-24T15:36:20.125Z,2.20
2019-02-24T15:38:47.575Z,2.60
2019-02-24T15:41:15.094Z,2.33
2019-02-24T15:43:42.508Z,2.27
2019-02-24T15:46:12.688Z,1.73
2019-02-24T15:48:40.171Z,2.10
2019-02-24T15:51:09.526Z,2.10
2019-02-24T15:53:37.130Z,2.23
2019-02-24T15:56:05.588Z,2.23
2019-02-24T15:58:33.276Z,2.83
2019-02-24T16:01:00.592Z,2.47
2019-02-24T16:03:27.960Z,2.67
2019-02-24T16:05:55.606Z,3.20
2019-02-24T16:08:25.301Z,4.63
2019-02-24T16:10:52.693Z,3.20
2019-02-24T16:13:20.188Z,2.83
2019-02-24T16:15:50.639Z,2.67
2019-02-24T16:18:21.098Z,3.00
2019-02-24T16:20:49.135Z,2.67
2019-02-24T16:23:24.470Z,3.47
2019-02-24T16:25:51.800Z,2.53
2019-02-24T16:28:19.415Z,3.27
2019-02-24T16:30:46.877Z,3.20
2019-02-24T16:33:17.163Z,2.90
2019-02-24T16:35:44.512Z,2.80
2019-02-24T16:38:11.925Z,3.20
2019-02-24T16:40:39.207Z,3.27
2019-02-24T16:43:07.598Z,3.27
2019-02-24T16:45:35.034Z,3.40
2019-02-24T16:48:02.284Z,3.10
2019-02-24T16:50:29.745Z,3.40
2019-02-24T16:52:57.855Z,6.30
2019-02-24T16:55:25.321Z,6.03
2019-02-24T16:57:52.546Z,9.63
2019-02-24T17:00:20.332Z,12.00
2019-02-24T17:02:50.580Z,11.83
2019-02-24T17:05:20.718Z,9.87
2019-02-24T17:07:49.310Z,4.93
2019-02-24T17:10:18.787Z,4.30
2019-02-24T17:12:46.628Z,4.00
2019-02-24T17:15:16.450Z,5.53
2019-02-24T17:17:45.456Z,7.97
2019-02-24T17:20:14.083Z,11.33
2019-02-24T17:22:41.834Z,10.57
2019-02-24T17:25:09.349Z,14.73
2019-02-24T17:27:39.451Z,8.27
2019-02-24T17:30:08.093Z,9.37
2019-02-24T17:32:35.647Z,11.53
2019-02-24T17:35:03.332Z,16.00
2019-02-24T17:37:32.309Z,15.07
2019-02-24T17:40:05.371Z,13.20
2019-02-24T17:42:33.029Z,7.53
2019-02-24T17:45:00.343Z,9.37
2019-02-24T17:47:28.033Z,10.97
2019-02-24T17:49:55.124Z,10.07
2019-02-24T17:52:22.955Z,7.83
2019-02-24T17:54:54.824Z,6.10
2019-02-24T17:57:22.461Z,6.17
2019-02-24T17:59:49.939Z,4.87
2019-02-24T18:02:17.516Z,5.10
2019-02-24T18:04:45.948Z,4.73
2019-02-24T18:07:15.402Z,4.87
2019-02-24T18:09:42.723Z,4.93
2019-02-24T18:12:12.163Z,6.37
2019-02-24T18:14:39.661Z,9.83
2019-02-24T18:17:09.218Z,7.97
2019-02-24T18:19:38.442Z,7.60
2019-02-24T18:22:09.069Z,8.40
2019-02-24T18:24:36.567Z,9.23
2019-02-24T18:27:04.431Z,8.20
2019-02-24T18:29:31.831Z,5.67
2019-02-24T18:31:59.144Z,6.33
2019-02-24T18:34:26.563Z,6.50
2019-02-24T18:36:54.037Z,6.70
2019-02-24T18:39:21.340Z,6.17
2019-02-24T18:41:49.825Z,5.33
2019-02-24T18:44:17.283Z,4.27
2019-02-24T18:46:47.698Z,4.17
2019-02-24T18:49:15.310Z,3.47
2019-02-24T18:51:44.522Z,3.40
2019-02-24T18:54:11.938Z,3.57
2019-02-24T18:56:39.294Z,4.07
2019-02-24T18:59:06.652Z,3.90
2019-02-24T19:01:33.802Z,4.00
2019-02-24T19:04:01.451Z,3.57
2019-02-24T19:06:38.954Z,3.80
2019-02-24T19:09:01.742Z,3.63
2019-02-24T19:11:32.654Z,7.97
2019-02-24T19:14:01.441Z,10.63
2019-02-24T19:16:28.697Z,11.43
2019-02-24T19:19:00.131Z,8.07
2019-02-24T19:21:27.850Z,7.63
2019-02-24T19:23:56.224Z,6.43
2019-02-24T19:26:25.387Z,6.43
2019-02-24T19:28:54.005Z,6.13
2019-02-24T19:31:21.595Z,4.87
2019-02-24T19:33:48.986Z,4.63
2019-02-24T19:36:17.586Z,4.27
2019-02-24T19:38:44.902Z,3.73
2019-02-24T19:41:12.796Z,4.20
2019-02-24T19:43:40.213Z,4.70
2019-02-24T19:46:07.640Z,4.00
2019-02-24T19:48:41.977Z,4.00
2019-02-24T19:51:07.335Z,4.23
2019-02-24T19:53:34.582Z,4.47
2019-02-24T19:56:03.874Z,4.17
2019-02-24T19:58:31.888Z,4.50
2019-02-24T20:00:59.686Z,4.10
2019-02-24T20:03:27.487Z,4.80
2019-02-24T20:05:54.746Z,4.93
2019-02-24T20:08:23.740Z,4.33
2019-02-24T20:10:51.350Z,4.67
2019-02-24T20:13:19.143Z,5.00
2019-02-24T20:15:48.187Z,5.90
2019-02-24T20:18:16.415Z,4.97
2019-02-24T20:20:43.859Z,5.77
2019-02-24T20:23:19.890Z,5.77
2019-02-24T20:25:47.667Z,6.23
2019-02-24T20:28:15.580Z,5.80
2019-02-24T20:30:44.296Z,5.27
2019-02-24T20:33:11.897Z,5.77
2019-02-24T20:35:39.372Z,5.73
2019-02-24T20:38:10.495Z,6.17
2019-02-24T20:40:39.898Z,5.20
2019-02-24T20:43:07.492Z,5.27
2019-02-24T20:45:35.025Z,5.20
2019-02-24T20:48:02.511Z,5.37
2019-02-24T20:50:29.883Z,5.50
2019-02-24T20:52:58.639Z,6.60
2019-02-24T20:55:26.074Z,6.63
2019-02-24T20:57:53.563Z,7.50
2019-02-24T21:00:29.447Z,7.03
2019-02-24T21:02:56.993Z,6.27
2019-02-24T21:05:24.628Z,6.27
2019-02-24T21:07:52.179Z,5.33
2019-02-24T21:10:19.528Z,5.80
2019-02-24T21:12:47.043Z,5.93
2019-02-24T21:15:14.858Z,5.30
2019-02-24T21:17:42.172Z,5.20
2019-02-24T21:20:12.569Z,6.03
2019-02-24T21:22:40.223Z,5.80
2019-02-24T21:25:07.699Z,5.77
2019-02-24T21:27:38.394Z,5.73
2019-02-24T21:30:06.444Z,4.90
2019-02-24T21:32:34.260Z,5.40
2019-02-24T21:35:01.961Z,4.97
2019-02-24T21:37:31.381Z,5.43
2019-02-24T21:40:06.194Z,6.50
2019-02-24T21:42:35.925Z,5.50
2019-02-24T21:45:05.253Z,6.03
2019-02-24T21:47:33.303Z,6.17
2019-02-24T21:50:00.921Z,6.80
2019-02-24T21:52:28.722Z,5.47
2019-02-24T21:54:56.132Z,5.43
2019-02-24T21:57:23.934Z,6.17
2019-02-24T21:59:51.252Z,6.90
2019-02-24T22:02:21.028Z,7.40
2019-02-24T22:04:49.080Z,7.60
2019-02-24T22:07:17.009Z,8.47
2019-02-24T22:09:44.201Z,8.97
2019-02-24T22:12:11.617Z,9.63
2019-02-24T22:14:39.012Z,8.03
2019-02-24T22:17:07.514Z,8.50
2019-02-24T22:19:34.796Z,7.93
2019-02-24T22:22:02.093Z,7.37
2019-02-24T22:24:29.626Z,6.00
2019-02-24T22:26:57.055Z,5.90
2019-02-24T22:29:24.599Z,6.27
2019-02-24T22:31:52.007Z,6.33
2019-02-24T22:34:19.413Z,8.20
2019-02-24T22:36:46.945Z,8.40
2019-02-24T22:39:14.408Z,10.37
2019-02-24T22:41:41.690Z,10.17
2019-02-24T22:44:11.205Z,7.17
2019-02-24T22:46:38.545Z,7.20
2019-02-24T22:49:06.027Z,5.70
2019-02-24T22:51:35.231Z,6.93
2019-02-24T22:54:02.436Z,8.33
2019-02-24T22:56:29.904Z,7.57
2019-02-24T22:58:57.623Z,7.07
2019-02-24T23:01:33.974Z,6.63
2019-02-24T23:04:07.312Z,7.03
2019-02-24T23:06:34.862Z,5.77
2019-02-24T23:09:02.496Z,5.87
2019-02-24T23:11:34.359Z,4.47
2019-02-24T23:14:01.751Z,4.60
2019-02-24T23:16:29.432Z,4.60
2019-02-24T23:18:56.912Z,4.47
2019-02-24T23:21:26.893Z,5.13
2019-02-24T23:23:57.773Z,5.47
2019-02-24T23:26:25.167Z,3.50
2019-02-24T23:28:52.772Z,3.17
2019-02-24T23:31:20.410Z,3.13
2019-02-24T23:33:48.250Z,2.70
2019-02-24T23:36:17.020Z,3.07
2019-02-24T23:38:45.102Z,3.10
2019-02-24T23:41:12.782Z,3.23
2019-02-24T23:43:40.154Z,3.17
2019-02-24T23:46:07.796Z,3.50
2019-02-24T23:48:35.262Z,3.30
2019-02-24T23:51:02.764Z,2.57
2019-02-24T23:53:30.128Z,2.87
2019-02-24T23:55:57.538Z,2.70
2019-02-24T23:58:27.665Z,3.10
